Time;durP1;ratioP1;P1;durP2;ratioP2;P2;SDS_P1;SDS_P2;PMS_P1;PMS_P2;Temp;Humidity;BMP_temperature;BMP_pressure;BME280_temperature;BME280_humidity;BME280_pressure;Samples;Min_cycle;Max_cycle;Signal;HPM_P1;HPM_P2
2023/01/19 00:00:37;;;;;;;7.07;5.17;;;;;;;;;;5056382;28;20025;-53
2023/01/19 00:03:03;;;;;;;7.10;5.33;;;;;;;;;;5056013;28;20079;-53
2023/01/19 00:05:29;;;;;;;6.93;4.77;;;;;;;;;;5056543;28;20029;-52
2023/01/19 00:07:55;;;;;;;19.67;6.63;;;;;;;;;;5056782;28;20154;-54
2023/01/19 00:10:21;;;;;;;7.70;5.90;;;;;;;;;;5056251;28;20028;-52
2023/01/19 00:12:47;;;;;;;3.83;3.53;;;;;;;;;;5056047;28;20104;-56
2023/01/19 00:15:13;;;;;;;4.40;4.00;;;;;;;;;;5056284;28;20025;-55
2023/01/19 00:17:39;;;;;;;5.73;4.53;;;;;;;;;;5056688;28;20029;-55
2023/01/19 00:20:06;;;;;;;6.53;3.87;;;;;;;;;;5055740;28;20482;-56
2023/01/19 00:22:32;;;;;;;6.70;4.60;;;;;;;;;;5055330;28;20045;-55
2023/01/19 00:24:58;;;;;;;4.87;4.23;;;;;;;;;;5055674;28;20036;-56
2023/01/19 00:27:24;;;;;;;6.07;4.57;;;;;;;;;;5056148;28;20075;-55
2023/01/19 00:29:50;;;;;;;11.30;3.70;;;;;;;;;;5056151;28;20082;-55
2023/01/19 00:32:16;;;;;;;11.93;5.63;;;;;;;;;;5055871;28;20410;-51
2023/01/19 00:34:48;;;;;;;4.80;4.30;;;;;;;;;;5056414;28;20063;-52
2023/01/19 00:37:14;;;;;;;5.87;4.70;;;;;;;;;;5056329;28;20120;-51
2023/01/19 00:39:40;;;;;;;8.17;4.07;;;;;;;;;;5055743;28;20025;-52
2023/01/19 00:44:50;;;;;;;6.77;6.10;;;;;;;;;;5055895;28;20410;-51
2023/01/19 00:47:16;;;;;;;4.70;4.20;;;;;;;;;;5055707;28;20033;-53
2023/01/19 00:49:42;;;;;;;6.23;5.63;;;;;;;;;;5055528;28;20487;-56
2023/01/19 00:52:08;;;;;;;7.27;6.60;;;;;;;;;;5055516;28;20486;-53
2023/01/19 00:54:34;;;;;;;6.43;5.17;;;;;;;;;;5055550;28;20477;-51
2023/01/19 00:57:00;;;;;;;6.57;5.60;;;;;;;;;;5055652;28;20370;-52
2023/01/19 00:59:26;;;;;;;7.90;6.10;;;;;;;;;;5055323;28;20474;-55
2023/01/19 01:01:52;;;;;;;5.77;4.40;;;;;;;;;;5055227;28;20045;-52
2023/01/19 01:04:18;;;;;;;7.30;5.93;;;;;;;;;;5055570;28;20100;-52
2023/01/19 01:06:44;;;;;;;6.37;4.83;;;;;;;;;;5055127;28;20078;-54
2023/01/19 01:09:13;;;;;;;7.87;4.47;;;;;;;;;;5055502;28;20029;-54
2023/01/19 01:11:39;;;;;;;5.53;5.00;;;;;;;;;;5055599;28;20469;-50
2023/01/19 01:14:06;;;;;;;9.07;4.90;;;;;;;;;;5055089;28;20033;-55
2023/01/19 01:16:32;;;;;;;5.73;4.80;;;;;;;;;;5055860;28;20029;-54
2023/01/19 01:18:57;;;;;;;5.03;4.57;;;;;;;;;;5055162;28;20021;-57
2023/01/19 01:21:23;;;;;;;5.87;5.17;;;;;;;;;;5055792;28;20025;-57
2023/01/19 01:23:49;;;;;;;6.30;5.03;;;;;;;;;;5054672;28;20500;-57
2023/01/19 01:26:15;;;;;;;6.03;5.50;;;;;;;;;;5055385;28;20463;-58
2023/01/19 01:28:41;;;;;;;5.43;4.93;;;;;;;;;;5055165;28;20112;-56
2023/01/19 01:31:07;;;;;;;6.80;4.97;;;;;;;;;;5054817;28;20031;-55
2023/01/19 01:33:33;;;;;;;6.57;4.73;;;;;;;;;;5054719;28;20052;-55
2023/01/19 01:35:59;;;;;;;6.93;6.23;;;;;;;;;;5054979;28;20370;-54
2023/01/19 01:38:25;;;;;;;5.93;5.33;;;;;;;;;;5054670;28;20484;-53
2023/01/19 01:40:51;;;;;;;4.40;3.50;;;;;;;;;;5054547;28;20021;-55
2023/01/19 01:43:19;;;;;;;7.37;5.97;;;;;;;;;;5054506;28;20374;-56
2023/01/19 01:45:45;;;;;;;9.93;5.83;;;;;;;;;;5054933;28;20406;-54
2023/01/19 01:48:15;;;;;;;8.13;6.87;;;;;;;;;;5054153;28;20475;-55
2023/01/19 01:51:22;;;;;;;6.97;6.20;;;;;;;;;;5054443;28;20382;-54
2023/01/19 01:53:31;;;;;;;6.17;5.13;;;;;;;;;;5054200;28;20478;-54
2023/01/19 01:55:57;;;;;;;7.93;7.13;;;;;;;;;;5054935;28;20036;-55
2023/01/19 01:58:24;;;;;;;5.90;4.73;;;;;;;;;;5054263;28;20021;-52
2023/01/19 02:03:34;;;;;;;8.93;4.60;;;;;;;;;;5054238;28;20127;-52
2023/01/19 02:06:02;;;;;;;9.67;7.17;;;;;;;;;;5054295;28;20367;-56
2023/01/19 02:14:14;;;;;;;4.23;3.83;;;;;;;;;;5054096;28;20082;-54
2023/01/19 02:16:40;;;;;;;6.80;3.67;;;;;;;;;;5054259;28;20033;-55
2023/01/19 02:19:08;;;;;;;7.10;6.40;;;;;;;;;;5053862;28;20029;-51
2023/01/19 02:21:44;;;;;;;4.97;4.37;;;;;;;;;;5053892;28;20086;-54
2023/01/19 02:24:10;;;;;;;10.30;7.30;;;;;;;;;;5053542;28;20028;-51
2023/01/19 02:26:38;;;;;;;5.80;5.27;;;;;;;;;;5054305;28;20033;-55
2023/01/19 02:29:06;;;;;;;7.37;5.70;;;;;;;;;;5053849;28;20371;-56
2023/01/19 02:31:33;;;;;;;7.23;6.20;;;;;;;;;;5054124;28;20025;-51
2023/01/19 02:34:00;;;;;;;6.20;5.63;;;;;;;;;;5053393;28;20481;-50
2023/01/19 02:36:48;;;;;;;7.83;7.03;;;;;;;;;;5053113;28;20032;-53
2023/01/19 02:39:15;;;;;;;5.93;4.00;;;;;;;;;;5053680;28;20502;-53
2023/01/19 02:41:44;;;;;;;6.33;5.70;;;;;;;;;;5053945;28;20067;-53
2023/01/19 02:44:10;;;;;;;6.57;4.47;;;;;;;;;;5054215;28;20033;-51
2023/01/19 02:46:37;;;;;;;5.17;4.30;;;;;;;;;;5053604;28;20029;-52
2023/01/19 02:49:03;;;;;;;7.67;5.53;;;;;;;;;;5054093;28;20029;-53
2023/01/19 02:51:29;;;;;;;7.17;5.33;;;;;;;;;;5053598;28;20032;-53
2023/01/19 02:54:13;;;;;;;9.67;6.27;;;;;;;;;;5053215;28;20025;-52
2023/01/19 02:56:39;;;;;;;6.53;4.87;;;;;;;;;;5053745;28;20029;-54
2023/01/19 02:59:22;;;;;;;4.87;3.77;;;;;;;;;;5053439;28;20025;-53
2023/01/19 03:01:54;;;;;;;4.47;4.00;;;;;;;;;;5053259;28;20048;-54
2023/01/19 03:04:20;;;;;;;5.40;4.77;;;;;;;;;;5053372;28;20493;-56
2023/01/19 03:06:46;;;;;;;6.70;5.73;;;;;;;;;;5052890;28;20021;-55
2023/01/19 03:09:28;;;;;;;6.10;4.67;;;;;;;;;;5053110;28;20036;-53
2023/01/19 03:12:00;;;;;;;10.03;4.23;;;;;;;;;;5053702;28;20032;-53
2023/01/19 03:14:28;;;;;;;6.23;4.17;;;;;;;;;;5053630;28;20116;-54
2023/01/19 03:16:55;;;;;;;4.53;4.13;;;;;;;;;;5053332;28;20163;-53
2023/01/19 03:19:23;;;;;;;7.67;6.63;;;;;;;;;;5053805;28;20053;-54
2023/01/19 03:21:52;;;;;;;4.80;4.20;;;;;;;;;;5053870;28;20041;-54
2023/01/19 03:24:20;;;;;;;8.13;4.53;;;;;;;;;;5053809;28;20025;-56
2023/01/19 03:26:51;;;;;;;5.43;3.87;;;;;;;;;;5053130;28;20079;-50
2023/01/19 03:29:19;;;;;;;9.57;5.83;;;;;;;;;;5053229;28;20072;-55
2023/01/19 03:31:47;;;;;;;6.23;5.13;;;;;;;;;;5053172;28;20432;-56
2023/01/19 03:34:14;;;;;;;5.33;3.37;;;;;;;;;;5053292;28;20025;-56
2023/01/19 03:36:45;;;;;;;9.30;4.23;;;;;;;;;;5053115;28;20048;-55
2023/01/19 03:39:14;;;;;;;4.75;3.80;;;;;;;;;;5053399;28;20083;-56
2023/01/19 03:41:40;;;;;;;22.67;6.57;;;;;;;;;;5053562;28;20043;-54
2023/01/19 03:44:07;;;;;;;7.07;4.80;;;;;;;;;;5053365;28;20091;-56
2023/01/19 03:46:33;;;;;;;5.17;4.63;;;;;;;;;;5053551;28;20032;-57
2023/01/19 03:49:00;;;;;;;6.27;4.80;;;;;;;;;;5055853;28;20451;-57
2023/01/19 03:51:26;;;;;;;5.53;5.00;;;;;;;;;;5057244;28;20048;-56
2023/01/19 03:53:52;;;;;;;7.07;4.50;;;;;;;;;;5056674;28;20025;-57
2023/01/19 03:56:22;;;;;;;5.57;4.83;;;;;;;;;;5057456;28;20032;-54
2023/01/19 03:58:48;;;;;;;6.65;5.82;;;;;;;;;;5056620;28;20025;-57
2023/01/19 04:01:14;;;;;;;6.03;4.20;;;;;;;;;;5056448;28;20025;-55
2023/01/19 04:03:41;;;;;;;6.63;5.80;;;;;;;;;;5056465;28;20025;-54
2023/01/19 04:06:08;;;;;;;5.80;5.10;;;;;;;;;;5056424;28;20079;-57
2023/01/19 04:08:34;;;;;;;6.33;5.73;;;;;;;;;;5056334;28;20025;-54
2023/01/19 04:11:00;;;;;;;12.77;4.80;;;;;;;;;;5056372;28;20029;-53
2023/01/19 04:13:28;;;;;;;4.70;4.30;;;;;;;;;;5056285;28;20130;-54
2023/01/19 04:15:54;;;;;;;9.83;5.43;;;;;;;;;;5056779;28;20032;-56
2023/01/19 04:18:20;;;;;;;7.50;6.80;;;;;;;;;;5056223;28;20021;-57
2023/01/19 04:20:46;;;;;;;10.23;6.50;;;;;;;;;;5056177;28;20027;-57
2023/01/19 04:23:12;;;;;;;9.57;6.60;;;;;;;;;;5056563;28;20355;-53
2023/01/19 04:25:39;;;;;;;8.30;7.40;;;;;;;;;;5056238;28;20355;-55
2023/01/19 04:28:04;;;;;;;6.50;5.63;;;;;;;;;;5056254;28;20056;-57
2023/01/19 04:30:30;;;;;;;5.27;4.47;;;;;;;;;;5056267;28;20025;-55
2023/01/19 04:32:58;;;;;;;10.37;6.57;;;;;;;;;;5055966;28;20025;-56
2023/01/19 04:35:24;;;;;;;10.27;4.83;;;;;;;;;;5055902;28;20101;-57
2023/01/19 04:37:50;;;;;;;7.53;6.13;;;;;;;;;;5055907;28;20129;-54
2023/01/19 04:40:16;;;;;;;6.70;6.00;;;;;;;;;;5055826;28;20418;-51
2023/01/19 04:42:45;;;;;;;11.97;5.23;;;;;;;;;;5056501;28;20025;-52
2023/01/19 04:45:12;;;;;;;5.23;4.77;;;;;;;;;;5056300;28;20100;-52
2023/01/19 04:47:38;;;;;;;6.67;6.00;;;;;;;;;;5055661;28;20083;-53
2023/01/19 04:50:05;;;;;;;5.40;4.80;;;;;;;;;;5055682;28;20466;-50
2023/01/19 04:52:35;;;;;;;7.33;5.53;;;;;;;;;;5055600;28;20082;-50
2023/01/19 04:55:05;;;;;;;3.93;3.27;;;;;;;;;;5055915;28;20087;-50
2023/01/19 04:57:31;;;;;;;7.88;4.80;;;;;;;;;;5055520;28;20436;-51
2023/01/19 04:59:57;;;;;;;9.17;5.90;;;;;;;;;;5054483;28;20025;-52
2023/01/19 05:02:24;;;;;;;5.23;3.80;;;;;;;;;;5055248;28;20053;-53
2023/01/19 05:04:50;;;;;;;6.30;4.50;;;;;;;;;;5055677;28;20025;-52
2023/01/19 05:07:16;;;;;;;10.53;5.10;;;;;;;;;;5055247;28;20037;-55
2023/01/19 05:09:42;;;;;;;5.73;5.13;;;;;;;;;;5055783;28;20036;-56
2023/01/19 05:12:08;;;;;;;7.87;7.07;;;;;;;;;;5055023;28;20021;-53
2023/01/19 05:14:34;;;;;;;6.87;5.10;;;;;;;;;;5055123;28;20029;-55
2023/01/19 05:17:02;;;;;;;5.00;4.47;;;;;;;;;;5054584;28;20382;-55
2023/01/19 05:19:28;;;;;;;8.87;6.00;;;;;;;;;;5054824;28;20025;-55
2023/01/19 05:21:54;;;;;;;5.87;5.27;;;;;;;;;;5054962;28;20021;-55
2023/01/19 05:24:20;;;;;;;4.73;3.73;;;;;;;;;;5054793;28;20486;-53
2023/01/19 05:26:46;;;;;;;7.87;5.03;;;;;;;;;;5055088;28;20032;-55
2023/01/19 05:29:12;;;;;;;11.47;5.83;;;;;;;;;;5055044;28;20146;-52
2023/01/19 05:31:38;;;;;;;6.90;6.30;;;;;;;;;;5054813;28;20416;-51
2023/01/19 05:34:04;;;;;;;6.83;5.03;;;;;;;;;;5055225;28;20033;-55
2023/01/19 05:36:31;;;;;;;6.60;5.87;;;;;;;;;;5054387;28;20471;-55
2023/01/19 05:38:57;;;;;;;7.60;5.57;;;;;;;;;;5054810;28;20081;-53
2023/01/19 05:41:23;;;;;;;7.13;5.13;;;;;;;;;;5054332;28;20025;-56
2023/01/19 05:43:49;;;;;;;6.50;5.27;;;;;;;;;;5054642;28;20021;-51
2023/01/19 05:46:15;;;;;;;10.07;6.90;;;;;;;;;;5054157;28;20043;-55
2023/01/19 05:48:40;;;;;;;9.87;6.17;;;;;;;;;;5054122;28;20029;-56
2023/01/19 05:51:07;;;;;;;10.47;5.30;;;;;;;;;;5054602;28;20075;-53
2023/01/19 05:53:33;;;;;;;8.73;5.73;;;;;;;;;;5054562;28;20028;-55
2023/01/19 05:56:00;;;;;;;5.67;5.13;;;;;;;;;;5055046;28;20037;-54
2023/01/19 05:58:26;;;;;;;9.63;5.03;;;;;;;;;;5054361;28;20441;-56
2023/01/19 06:00:52;;;;;;;7.87;5.70;;;;;;;;;;5054250;28;20108;-55
2023/01/19 06:03:18;;;;;;;5.77;5.17;;;;;;;;;;5054552;28;20127;-56
2023/01/19 06:05:44;;;;;;;7.00;4.70;;;;;;;;;;5053892;28;20033;-55
2023/01/19 06:08:10;;;;;;;5.67;5.17;;;;;;;;;;5054086;28;20036;-52
2023/01/19 06:10:36;;;;;;;6.33;5.70;;;;;;;;;;5054134;28;20021;-53
2023/01/19 06:13:02;;;;;;;12.50;5.83;;;;;;;;;;5053722;28;20029;-55
2023/01/19 06:15:28;;;;;;;7.43;6.57;;;;;;;;;;5054558;28;20166;-50
2023/01/19 06:17:54;;;;;;;11.00;6.67;;;;;;;;;;5053930;28;20025;-54
2023/01/19 06:20:20;;;;;;;10.17;4.60;;;;;;;;;;5053965;28;20083;-56
2023/01/19 06:22:46;;;;;;;6.60;5.87;;;;;;;;;;5053786;28;20021;-56
2023/01/19 06:25:12;;;;;;;6.87;6.23;;;;;;;;;;5054352;28;20025;-56
2023/01/19 06:27:42;;;;;;;5.30;4.80;;;;;;;;;;5053654;28;20035;-53
2023/01/19 06:30:08;;;;;;;5.07;3.63;;;;;;;;;;5054295;28;20032;-51
2023/01/19 06:32:34;;;;;;;7.77;5.07;;;;;;;;;;5054450;28;20060;-54
2023/01/19 06:35:00;;;;;;;7.30;5.93;;;;;;;;;;5054222;28;20048;-53
2023/01/19 06:37:27;;;;;;;10.87;4.17;;;;;;;;;;5053704;28;20367;-56
2023/01/19 06:39:53;;;;;;;5.37;4.87;;;;;;;;;;5053465;28;20029;-51
2023/01/19 06:42:19;;;;;;;7.87;6.00;;;;;;;;;;5053691;28;20024;-54
2023/01/19 06:44:46;;;;;;;6.17;4.30;;;;;;;;;;5054207;28;20025;-51
2023/01/19 06:47:13;;;;;;;4.83;4.33;;;;;;;;;;5053714;28;20367;-51
2023/01/19 06:49:39;;;;;;;2.87;2.60;;;;;;;;;;5054087;28;20056;-54
2023/01/19 06:52:05;;;;;;;6.50;5.53;;;;;;;;;;5054017;28;20067;-55
2023/01/19 06:54:31;;;;;;;4.93;4.07;;;;;;;;;;5053977;28;20064;-55
2023/01/19 06:56:57;;;;;;;5.83;4.17;;;;;;;;;;5054001;28;20025;-53
2023/01/19 06:59:24;;;;;;;5.53;4.80;;;;;;;;;;5053233;28;20175;-55
2023/01/19 07:01:50;;;;;;;5.03;4.23;;;;;;;;;;5053034;28;20056;-57
2023/01/19 07:04:16;;;;;;;6.50;4.90;;;;;;;;;;5054106;28;20021;-57
2023/01/19 07:06:42;;;;;;;5.93;5.17;;;;;;;;;;5053184;28;20455;-59
2023/01/19 07:09:10;;;;;;;4.57;4.17;;;;;;;;;;5052174;28;20036;-56
2023/01/19 07:11:36;;;;;;;3.90;3.53;;;;;;;;;;5053632;28;20032;-58
2023/01/19 07:14:02;;;;;;;5.47;4.27;;;;;;;;;;5053106;28;20378;-53
2023/01/19 07:16:28;;;;;;;6.30;3.07;;;;;;;;;;5053876;28;20036;-54
2023/01/19 07:18:54;;;;;;;6.50;4.60;;;;;;;;;;5053158;28;20029;-57
2023/01/19 07:21:21;;;;;;;7.37;5.17;;;;;;;;;;5053285;28;20025;-56
2023/01/19 07:23:52;;;;;;;4.50;4.10;;;;;;;;;;5055846;28;20447;-55
2023/01/19 07:26:20;;;;;;;6.40;3.43;;;;;;;;;;5057119;28;20389;-56
2023/01/19 07:28:46;;;;;;;6.10;4.87;;;;;;;;;;5056882;28;20135;-57
2023/01/19 07:31:11;;;;;;;5.97;5.27;;;;;;;;;;5057446;28;20086;-55
2023/01/19 07:33:37;;;;;;;4.90;3.33;;;;;;;;;;5057068;28;20056;-55
2023/01/19 07:36:03;;;;;;;4.17;3.40;;;;;;;;;;5057249;28;20481;-56
2023/01/19 07:38:29;;;;;;;5.33;3.60;;;;;;;;;;5056839;28;20032;-56
2023/01/19 07:41:03;;;;;;;3.97;3.47;;;;;;;;;;5056719;28;20219;-57
2023/01/19 07:43:29;;;;;;;7.03;4.10;;;;;;;;;;5057274;28;20029;-57
2023/01/19 07:45:55;;;;;;;4.90;3.73;;;;;;;;;;5057049;28;20032;-55
2023/01/19 07:48:21;;;;;;;3.80;3.27;;;;;;;;;;5056615;28;20043;-53
2023/01/19 07:50:47;;;;;;;6.13;5.40;;;;;;;;;;5056883;28;20104;-56
2023/01/19 07:53:13;;;;;;;5.87;4.80;;;;;;;;;;5057013;28;20021;-54
2023/01/19 07:55:39;;;;;;;4.03;3.63;;;;;;;;;;5056692;28;20036;-56
2023/01/19 07:58:06;;;;;;;3.90;3.50;;;;;;;;;;5056437;28;20051;-56
2023/01/19 08:00:32;;;;;;;4.13;3.30;;;;;;;;;;5056217;28;20061;-56
2023/01/19 08:02:59;;;;;;;4.93;4.03;;;;;;;;;;5055832;28;20398;-53
2023/01/19 08:05:25;;;;;;;3.97;3.57;;;;;;;;;;5056568;28;20344;-56
2023/01/19 08:07:51;;;;;;;5.03;3.77;;;;;;;;;;5056386;28;20033;-55
2023/01/19 08:10:17;;;;;;;5.97;4.10;;;;;;;;;;5056400;28;20029;-53
2023/01/19 08:12:43;;;;;;;4.53;3.40;;;;;;;;;;5056017;28;20694;-50
2023/01/19 08:15:10;;;;;;;5.93;4.63;;;;;;;;;;5056552;28;20120;-56
2023/01/19 08:17:36;;;;;;;8.07;6.10;;;;;;;;;;5055826;28;20425;-56
2023/01/19 08:20:03;;;;;;;5.47;4.00;;;;;;;;;;5056784;28;20029;-56
2023/01/19 08:22:29;;;;;;;5.67;4.47;;;;;;;;;;5056138;28;20375;-56
2023/01/19 08:24:54;;;;;;;8.63;3.87;;;;;;;;;;5056708;28;20025;-56
2023/01/19 08:27:21;;;;;;;6.73;4.77;;;;;;;;;;5056017;28;20143;-55
2023/01/19 08:29:47;;;;;;;10.27;4.97;;;;;;;;;;5055956;28;20029;-57
2023/01/19 08:32:12;;;;;;;3.83;3.47;;;;;;;;;;5056269;28;20456;-55
2023/01/19 08:34:38;;;;;;;5.37;3.03;;;;;;;;;;5056200;28;20056;-55
2023/01/19 08:37:04;;;;;;;4.83;3.73;;;;;;;;;;5055966;28;20033;-55
2023/01/19 08:39:30;;;;;;;6.33;4.87;;;;;;;;;;5056047;28;20040;-52
2023/01/19 08:41:58;;;;;;;5.00;3.67;;;;;;;;;;5056242;28;20043;-55
2023/01/19 08:44:24;;;;;;;5.10;4.60;;;;;;;;;;5055627;28;20032;-56
2023/01/19 08:46:49;;;;;;;7.13;3.60;;;;;;;;;;5055696;28;20033;-55
2023/01/19 08:49:15;;;;;;;4.40;2.80;;;;;;;;;;5055584;28;20060;-55
2023/01/19 08:51:45;;;;;;;4.47;3.23;;;;;;;;;;5055560;28;20059;-54
2023/01/19 08:54:11;;;;;;;6.90;4.77;;;;;;;;;;5056039;28;20033;-54
2023/01/19 08:56:36;;;;;;;4.33;2.77;;;;;;;;;;5055200;28;20395;-56
2023/01/19 08:59:02;;;;;;;3.63;3.00;;;;;;;;;;5055776;28;20316;-54
2023/01/19 09:01:28;;;;;;;7.67;5.27;;;;;;;;;;5055016;28;20432;-54
2023/01/19 09:03:54;;;;;;;3.87;2.93;;;;;;;;;;5054705;28;20389;-54
2023/01/19 09:06:21;;;;;;;4.80;3.33;;;;;;;;;;5054979;28;20380;-52
2023/01/19 09:08:47;;;;;;;4.60;3.37;;;;;;;;;;5055119;28;20025;-51
2023/01/19 09:11:14;;;;;;;5.23;4.00;;;;;;;;;;5055219;28;20079;-56
2023/01/19 09:13:40;;;;;;;3.30;3.00;;;;;;;;;;5054902;28;20025;-53
2023/01/19 09:16:07;;;;;;;3.17;2.87;;;;;;;;;;5055707;28;20025;-56
2023/01/19 09:18:33;;;;;;;4.67;3.23;;;;;;;;;;5055124;28;20029;-52
2023/01/19 09:20:59;;;;;;;6.93;3.57;;;;;;;;;;5055048;28;20417;-57
2023/01/19 09:23:26;;;;;;;5.67;4.30;;;;;;;;;;5055151;28;20025;-56
2023/01/19 09:25:56;;;;;;;3.43;3.13;;;;;;;;;;5055298;28;20029;-57
2023/01/19 09:28:22;;;;;;;9.18;3.90;;;;;;;;;;5055014;28;20536;-55
2023/01/19 09:30:48;;;;;;;6.20;3.80;;;;;;;;;;5055472;28;20029;-54
2023/01/19 09:33:15;;;;;;;5.47;4.13;;;;;;;;;;5055133;28;20029;-55
2023/01/19 09:35:42;;;;;;;5.40;3.40;;;;;;;;;;5055097;28;20021;-54
2023/01/19 09:38:09;;;;;;;6.80;4.10;;;;;;;;;;5055171;28;20020;-57
2023/01/19 09:40:36;;;;;;;3.37;3.07;;;;;;;;;;5055064;28;20399;-57
2023/01/19 09:43:13;;;;;;;5.30;4.80;;;;;;;;;;5055100;28;20322;-55
2023/01/19 09:45:44;;;;;;;4.80;3.53;;;;;;;;;;5054427;28;20021;-52
2023/01/19 09:48:33;;;;;;;4.47;3.57;;;;;;;;;;5055325;28;20033;-56
2023/01/19 09:51:00;;;;;;;5.23;3.57;;;;;;;;;;5054298;28;20387;-53
2023/01/19 09:53:42;;;;;;;3.43;2.77;;;;;;;;;;5054793;28;20021;-56
2023/01/19 09:56:12;;;;;;;3.77;2.47;;;;;;;;;;5054985;28;20029;-53
2023/01/19 09:58:38;;;;;;;3.90;3.20;;;;;;;;;;5054325;28;20521;-53
2023/01/19 10:01:08;;;;;;;4.60;2.77;;;;;;;;;;5054870;28;20029;-55
2023/01/19 10:03:37;;;;;;;3.72;2.97;;;;;;;;;;5054257;28;20044;-57
2023/01/19 10:06:05;;;;;;;4.67;3.73;;;;;;;;;;5054079;28;20025;-56
2023/01/19 10:08:36;;;;;;;4.00;2.73;;;;;;;;;;5054049;28;20057;-53
2023/01/19 10:11:05;;;;;;;4.07;3.70;;;;;;;;;;5054482;28;20044;-54
2023/01/19 10:13:34;;;;;;;3.77;2.27;;;;;;;;;;5054476;28;20115;-55
2023/01/19 10:16:17;;;;;;;4.47;2.43;;;;;;;;;;5054172;28;20044;-56
2023/01/19 10:18:47;;;;;;;5.67;3.67;;;;;;;;;;5053605;28;20036;-52
2023/01/19 10:21:32;;;;;;;8.02;3.90;;;;;;;;;;5054101;28;20029;-57
2023/01/19 10:24:00;;;;;;;4.90;4.40;;;;;;;;;;5053742;28;20035;-56
2023/01/19 10:26:33;;;;;;;5.00;3.67;;;;;;;;;;5054722;28;20029;-55
2023/01/19 10:29:06;;;;;;;6.67;5.87;;;;;;;;;;5053686;28;20111;-56
2023/01/19 10:31:33;;;;;;;4.70;3.80;;;;;;;;;;5054013;28;20435;-55
2023/01/19 10:33:59;;;;;;;3.17;2.53;;;;;;;;;;5053614;28;20057;-55
2023/01/19 10:36:28;;;;;;;4.17;3.77;;;;;;;;;;5054397;28;20029;-55
2023/01/19 10:38:54;;;;;;;2.33;1.93;;;;;;;;;;5053794;28;20033;-56
2023/01/19 10:41:40;;;;;;;3.20;2.37;;;;;;;;;;5053674;28;20029;-54
2023/01/19 10:44:08;;;;;;;5.23;3.20;;;;;;;;;;5053203;28;20544;-55
2023/01/19 10:46:41;;;;;;;2.80;1.93;;;;;;;;;;5053918;28;20373;-55
2023/01/19 10:49:22;;;;;;;3.60;3.07;;;;;;;;;;5053875;28;20029;-54
2023/01/19 10:51:48;;;;;;;5.40;2.93;;;;;;;;;;5053778;28;20419;-57
2023/01/19 10:54:15;;;;;;;5.33;3.77;;;;;;;;;;5053518;28;20024;-55
2023/01/19 10:56:41;;;;;;;8.33;3.47;;;;;;;;;;5053904;28;20060;-56
2023/01/19 10:59:27;;;;;;;7.03;3.53;;;;;;;;;;5057272;28;20116;-55
2023/01/19 11:02:11;;;;;;;6.17;2.90;;;;;;;;;;5058152;28;20040;-52
2023/01/19 11:04:37;;;;;;;3.47;3.17;;;;;;;;;;5057872;28;20032;-55
2023/01/19 11:07:18;;;;;;;6.73;3.57;;;;;;;;;;5057368;28;20028;-56
2023/01/19 11:09:45;;;;;;;3.43;3.10;;;;;;;;;;5057736;28;20025;-53
2023/01/19 11:12:21;;;;;;;5.13;3.23;;;;;;;;;;5057624;28;20513;-56
2023/01/19 11:14:48;;;;;;;4.13;2.43;;;;;;;;;;5057578;28;20052;-56
2023/01/19 11:17:23;;;;;;;4.93;4.53;;;;;;;;;;5056992;28;20490;-53
2023/01/19 11:19:55;;;;;;;4.53;2.87;;;;;;;;;;5058179;28;20025;-53
2023/01/19 11:22:25;;;;;;;4.17;3.53;;;;;;;;;;5057395;28;20024;-56
2023/01/19 11:24:52;;;;;;;4.43;2.90;;;;;;;;;;5057585;28;20039;-55
2023/01/19 11:27:19;;;;;;;4.30;2.83;;;;;;;;;;5057439;28;20107;-50
2023/01/19 11:29:47;;;;;;;4.90;3.30;;;;;;;;;;5057112;28;20040;-56
2023/01/19 11:32:20;;;;;;;4.67;3.87;;;;;;;;;;5057332;28;20033;-51
2023/01/19 11:34:45;;;;;;;4.17;2.67;;;;;;;;;;5057828;28;20103;-52
2023/01/19 11:37:17;;;;;;;3.93;3.47;;;;;;;;;;5057537;28;20476;-57
2023/01/19 11:39:46;;;;;;;4.83;3.20;;;;;;;;;;5056988;28;20116;-56
2023/01/19 11:42:13;;;;;;;6.40;3.47;;;;;;;;;;5056608;28;20025;-54
2023/01/19 11:44:43;;;;;;;11.40;3.63;;;;;;;;;;5057218;28;20021;-52
2023/01/19 11:47:24;;;;;;;3.45;1.90;;;;;;;;;;5057535;28;20106;-53
2023/01/19 11:49:56;;;;;;;5.15;2.40;;;;;;;;;;5057233;28;20029;-56
2023/01/19 11:52:28;;;;;;;5.23;3.17;;;;;;;;;;5056793;28;20025;-57
2023/01/19 11:54:57;;;;;;;3.90;2.63;;;;;;;;;;5057107;28;20043;-57
2023/01/19 11:57:23;;;;;;;4.07;3.57;;;;;;;;;;5057274;28;20364;-55
2023/01/19 11:59:49;;;;;;;4.83;2.97;;;;;;;;;;5056635;28;20075;-55
2023/01/19 12:02:18;;;;;;;3.90;3.30;;;;;;;;;;5056900;28;20060;-57
2023/01/19 12:04:45;;;;;;;7.07;3.03;;;;;;;;;;5056573;28;20108;-54
2023/01/19 12:07:12;;;;;;;6.40;3.00;;;;;;;;;;5057013;28;20055;-55
2023/01/19 12:10:01;;;;;;;4.93;3.30;;;;;;;;;;5056167;28;20048;-51
2023/01/19 12:12:31;;;;;;;4.27;2.77;;;;;;;;;;5056900;28;20043;-51
2023/01/19 12:15:02;;;;;;;3.70;2.92;;;;;;;;;;5056761;28;20099;-53
2023/01/19 12:17:36;;;;;;;3.67;2.30;;;;;;;;;;5056199;28;20467;-57
2023/01/19 12:20:05;;;;;;;4.50;2.83;;;;;;;;;;5056302;28;20025;-56
2023/01/19 12:22:36;;;;;;;3.33;2.50;;;;;;;;;;5056309;28;20036;-54
2023/01/19 12:25:05;;;;;;;3.20;2.30;;;;;;;;;;5056652;28;20036;-56
2023/01/19 12:27:31;;;;;;;3.80;2.53;;;;;;;;;;5056922;28;20033;-57
2023/01/19 12:29:57;;;;;;;4.73;3.70;;;;;;;;;;5056462;28;20033;-54
2023/01/19 12:32:33;;;;;;;4.50;3.83;;;;;;;;;;5055836;28;20150;-53
2023/01/19 12:34:59;;;;;;;4.00;3.07;;;;;;;;;;5056904;28;20410;-55
2023/01/19 12:37:28;;;;;;;4.37;3.43;;;;;;;;;;5055912;28;20140;-57
2023/01/19 12:39:56;;;;;;;4.37;2.50;;;;;;;;;;5055856;28;20025;-57
2023/01/19 12:42:22;;;;;;;4.60;3.43;;;;;;;;;;5055748;28;20025;-57
2023/01/19 12:44:48;;;;;;;4.90;3.77;;;;;;;;;;5055946;28;20032;-55
2023/01/19 12:47:14;;;;;;;4.17;2.83;;;;;;;;;;5056009;28;20029;-57
2023/01/19 12:49:40;;;;;;;8.80;2.70;;;;;;;;;;5055741;28;20037;-54
2023/01/19 12:52:25;;;;;;;3.63;2.67;;;;;;;;;;5055666;28;20033;-56
2023/01/19 12:55:10;;;;;;;4.10;3.30;;;;;;;;;;5055881;28;20028;-56
2023/01/19 12:57:39;;;;;;;4.30;2.70;;;;;;;;;;5055808;28;20036;-56
2023/01/19 13:00:23;;;;;;;3.77;2.70;;;;;;;;;;5056191;28;20108;-56
2023/01/19 13:02:53;;;;;;;3.67;2.60;;;;;;;;;;5055548;28;20049;-56
2023/01/19 13:05:32;;;;;;;4.68;3.13;;;;;;;;;;5055885;28;20025;-56
2023/01/19 13:08:01;;;;;;;3.60;2.97;;;;;;;;;;5055241;28;20044;-56
2023/01/19 13:10:45;;;;;;;4.67;3.53;;;;;;;;;;5055381;28;20146;-57
2023/01/19 13:13:19;;;;;;;7.17;3.07;;;;;;;;;;5054948;28;20025;-57
2023/01/19 13:15:45;;;;;;;4.10;3.13;;;;;;;;;;5055304;28;20028;-56
2023/01/19 13:18:37;;;;;;;3.93;3.07;;;;;;;;;;5055177;28;20390;-58
2023/01/19 13:21:05;;;;;;;3.80;2.57;;;;;;;;;;5053451;28;20120;-54
2023/01/19 13:23:49;;;;;;;3.93;2.87;;;;;;;;;;5054989;28;20070;-55
2023/01/19 13:26:16;;;;;;;5.07;3.70;;;;;;;;;;5055649;28;20033;-56
2023/01/19 13:28:43;;;;;;;3.57;3.07;;;;;;;;;;5055187;28;20165;-55
2023/01/19 13:31:10;;;;;;;5.70;3.13;;;;;;;;;;5055256;28;20028;-56
2023/01/19 13:33:38;;;;;;;5.87;2.80;;;;;;;;;;5055475;28;20029;-54
2023/01/19 13:36:12;;;;;;;4.43;3.17;;;;;;;;;;5054511;28;20505;-56
2023/01/19 13:38:41;;;;;;;5.83;4.17;;;;;;;;;;5055616;28;20025;-56
2023/01/19 13:41:07;;;;;;;2.47;2.07;;;;;;;;;;5054680;28;20366;-53
2023/01/19 13:43:36;;;;;;;4.20;2.73;;;;;;;;;;5054873;28;20024;-57
2023/01/19 13:46:03;;;;;;;3.00;2.60;;;;;;;;;;5055035;28;20033;-56
2023/01/19 13:48:30;;;;;;;3.87;2.77;;;;;;;;;;5055071;28;20178;-54
2023/01/19 13:51:22;;;;;;;2.97;1.50;;;;;;;;;;5054415;28;20029;-52
2023/01/19 13:53:58;;;;;;;3.13;2.83;;;;;;;;;;5053843;28;20108;-56
2023/01/19 13:56:27;;;;;;;3.27;2.73;;;;;;;;;;5054987;28;20036;-55
2023/01/19 13:59:08;;;;;;;4.10;2.33;;;;;;;;;;5054457;28;20028;-55
2023/01/19 14:01:35;;;;;;;2.63;1.77;;;;;;;;;;5054405;28;20090;-53
2023/01/19 14:04:01;;;;;;;3.63;2.53;;;;;;;;;;5054670;28;20139;-54
2023/01/19 14:06:37;;;;;;;4.90;2.60;;;;;;;;;;5054397;28;20043;-57
2023/01/19 14:09:05;;;;;;;3.17;2.20;;;;;;;;;;5054566;28;20128;-56
2023/01/19 14:11:31;;;;;;;4.03;3.63;;;;;;;;;;5053923;28;20025;-53
2023/01/19 14:13:57;;;;;;;3.87;2.63;;;;;;;;;;5054066;28;20075;-56
2023/01/19 14:16:27;;;;;;;4.00;2.77;;;;;;;;;;5054042;28;20083;-53
2023/01/19 14:19:03;;;;;;;3.90;2.67;;;;;;;;;;5053771;28;20382;-56
2023/01/19 14:21:39;;;;;;;5.67;4.67;;;;;;;;;;5054031;28;20079;-56
2023/01/19 14:24:07;;;;;;;4.87;3.67;;;;;;;;;;5053995;28;20113;-54
2023/01/19 14:26:53;;;;;;;5.07;2.93;;;;;;;;;;5053935;28;20518;-55
2023/01/19 14:29:26;;;;;;;4.20;2.97;;;;;;;;;;5053891;28;20028;-55
2023/01/19 14:32:06;;;;;;;4.70;4.10;;;;;;;;;;5053738;28;20028;-55
2023/01/19 14:34:37;;;;;;;5.75;3.47;;;;;;;;;;5053708;28;20421;-55
2023/01/19 14:37:03;;;;;;;3.65;2.90;;;;;;;;;;5054345;28;20086;-55
2023/01/19 14:39:34;;;;;;;3.57;2.90;;;;;;;;;;5053831;28;20017;-56
2023/01/19 14:42:02;;;;;;;2.70;2.40;;;;;;;;;;5053729;28;20029;-55
2023/01/19 14:44:30;;;;;;;6.00;2.53;;;;;;;;;;5054313;28;20402;-56
2023/01/19 14:46:58;;;;;;;3.67;2.00;;;;;;;;;;5053921;28;20425;-56
2023/01/19 14:49:34;;;;;;;3.67;2.40;;;;;;;;;;5053594;28;20028;-54
2023/01/19 14:52:03;;;;;;;3.67;2.83;;;;;;;;;;5054234;28;20021;-56
2023/01/19 14:54:31;;;;;;;6.73;3.33;;;;;;;;;;5054328;28;20036;-57
2023/01/19 14:56:57;;;;;;;4.73;3.10;;;;;;;;;;5053648;28;20043;-56
2023/01/19 14:59:23;;;;;;;4.50;2.73;;;;;;;;;;5054378;28;20033;-56
2023/01/19 15:01:49;;;;;;;3.30;2.60;;;;;;;;;;5054291;28;20494;-54